Time;durP1;ratioP1;P1;durP2;ratioP2;P2;SDS_P1;SDS_P2;PMS_P1;PMS_P2;Temp;Humidity;BMP_temperature;BMP_pressure;BME280_temperature;BME280_humidity;BME280_pressure;Samples;Min_cycle;Max_cycle;Signal;HPM_P1;HPM_P2
2023/04/15 00:00:27;;;;;;;0.17;0.17;;;;;;;5.00;100.00;98644.13;6073361;23;20014;-95
2023/04/15 00:03:15;;;;;;;0.00;0.00;;;;;;;4.97;100.00;98643.00;6071599;23;20026;-93
2023/04/15 00:06:07;;;;;;;0.00;0.00;;;;;;;4.91;100.00;98616.47;6049617;23;20093;-95
2023/04/15 00:08:35;;;;;;;0.00;0.00;;;;;;;5.05;100.00;98638.09;6088239;23;20158;-95
2023/04/15 00:11:23;;;;;;;0.00;0.00;;;;;;;5.23;100.00;98665.88;6049165;23;20014;-94
2023/04/15 00:13:49;;;;;;;0.00;0.00;;;;;;;5.06;100.00;98640.41;6097737;23;20354;-94
2023/04/15 00:16:15;;;;;;;0.10;0.10;;;;;;;5.05;100.00;98616.13;6073033;23;20085;-95
2023/04/15 00:18:41;;;;;;;0.00;0.00;;;;;;;5.20;100.00;98646.72;6074261;23;20436;-95
2023/04/15 00:21:06;;;;;;;0.22;0.22;;;;;;;4.94;100.00;98610.09;6097008;23;20439;-95
2023/04/15 00:23:32;;;;;;;0.35;0.28;;;;;;;5.31;100.00;98677.44;6073697;23;20065;-94
2023/04/15 00:25:58;;;;;;;0.00;0.00;;;;;;;5.19;100.00;98643.19;6073908;23;20426;-95
2023/04/15 00:28:23;;;;;;;0.00;0.00;;;;;;;5.09;100.00;98630.53;6097478;23;20045;-96
2023/04/15 00:30:49;;;;;;;0.85;0.85;;;;;;;5.27;100.00;98655.53;6073158;23;20020;-95
2023/04/15 00:33:17;;;;;;;0.10;0.10;;;;;;;5.12;100.00;98635.16;6098036;23;20069;-94
2023/04/15 00:35:43;;;;;;;0.47;0.47;;;;;;;5.35;100.00;98669.88;6074230;23;20021;-94
2023/04/15 00:38:09;;;;;;;0.47;0.47;;;;;;;5.22;100.00;98653.31;6049384;23;20081;-94
2023/04/15 00:40:34;;;;;;;0.20;0.20;;;;;;;5.15;100.00;98634.28;6098767;23;20105;-95
2023/04/15 00:43:00;;;;;;;0.10;0.10;;;;;;;5.18;100.00;98636.16;6099484;23;20088;-95
2023/04/15 00:45:29;;;;;;;0.10;0.10;;;;;;;5.01;100.00;98609.94;6099509;23;20354;-95
2023/04/15 00:47:54;;;;;;;0.22;0.22;;;;;;;5.10;100.00;98626.56;6099549;23;20013;-95
2023/04/15 00:50:20;;;;;;;0.30;0.30;;;;;;;5.22;100.00;98636.06;6051316;23;20018;-95
2023/04/15 00:52:47;;;;;;;0.47;0.47;;;;;;;5.18;100.00;98630.66;6052494;23;20014;-95
2023/04/15 00:55:14;;;;;;;0.00;0.00;;;;;;;5.03;100.00;98607.50;6099695;23;20020;-95
2023/04/15 00:57:40;;;;;;;0.08;0.08;;;;;;;5.22;100.00;98639.56;6099578;23;20010;-94
2023/04/15 01:00:10;;;;;;;0.40;0.40;;;;;;;5.39;100.00;98657.56;6099710;23;20068;-94
2023/04/15 01:05:18;;;;;;;0.00;0.00;;;;;;;5.32;100.00;98640.50;6177321;23;20025;-92
2023/04/15 01:07:44;;;;;;;0.08;0.08;;;;;;;5.24;100.00;98626.19;6132310;23;20028;-91
2023/04/15 01:10:09;;;;;;;1.08;0.98;;;;;;;5.26;100.00;98626.50;6107362;23;20355;-92
2023/04/15 01:12:36;;;;;;;0.10;0.10;;;;;;;5.24;100.00;98628.16;6156718;23;20017;-90
2023/04/15 01:15:03;;;;;;;1.27;1.17;;;;;;;5.54;100.00;98677.22;6132487;23;20017;-94
2023/04/15 01:17:29;;;;;;;0.32;0.32;;;;;;;5.33;100.00;98642.81;6156081;23;20117;-92
2023/04/15 01:19:56;;;;;;;0.13;0.13;;;;;;;5.36;100.00;98647.44;6156753;23;20029;-92
2023/04/15 01:22:23;;;;;;;0.13;0.13;;;;;;;5.22;100.00;98625.09;6131921;23;20427;-92
2023/04/15 01:25:01;;;;;;;0.30;0.30;;;;;;;5.44;100.00;98651.53;6156779;23;20009;-92
2023/04/15 01:27:26;;;;;;;0.45;0.45;;;;;;;5.32;100.00;98638.53;6132711;23;20013;-92
2023/04/15 01:29:52;;;;;;;0.47;0.47;;;;;;;5.28;100.00;98640.59;6132578;23;20012;-90
2023/04/15 01:32:18;;;;;;;0.40;0.40;;;;;;;5.28;100.00;98646.09;6131879;23;20016;-91
2023/04/15 01:34:44;;;;;;;0.65;0.63;;;;;;;5.46;100.00;98671.09;6156850;23;20016;-90
2023/04/15 01:37:10;;;;;;;0.95;0.75;;;;;;;5.39;100.00;98660.31;6183299;23;20387;-89
2023/04/15 01:39:36;;;;;;;0.45;0.45;;;;;;;5.50;100.00;98685.53;6132200;23;20060;-93
2023/04/15 01:42:02;;;;;;;0.25;0.25;;;;;;;5.35;100.00;98656.13;6156329;23;20094;-92
2023/04/15 01:44:27;;;;;;;0.50;0.50;;;;;;;5.28;100.00;98645.31;6156624;23;20039;-89
2023/04/15 01:46:53;;;;;;;1.08;0.73;;;;;;;5.32;100.00;98641.28;6158235;23;20387;-92
2023/04/15 01:49:19;;;;;;;0.22;0.22;;;;;;;5.37;100.00;98654.50;6163645;23;20013;-92
2023/04/15 01:51:44;;;;;;;0.00;0.00;;;;;;;5.36;100.00;98650.19;6138418;23;20032;-91
2023/04/15 01:54:11;;;;;;;1.98;0.68;;;;;;;5.35;100.00;98656.88;6161628;23;20426;-91
2023/04/15 01:56:37;;;;;;;0.10;0.10;;;;;;;5.34;100.00;98655.34;6158469;23;20048;-92
2023/04/15 01:59:03;;;;;;;1.55;1.30;;;;;;;5.47;100.00;98675.41;6156427;23;20080;-92
2023/04/15 02:01:29;;;;;;;1.70;1.25;;;;;;;5.38;100.00;98653.25;6131695;23;20064;-93
2023/04/15 02:03:58;;;;;;;0.57;0.50;;;;;;;5.41;100.00;98663.41;6131774;23;20132;-91
2023/04/15 02:06:24;;;;;;;0.40;0.40;;;;;;;5.46;100.00;98671.09;6183508;23;20386;-93
2023/04/15 02:08:50;;;;;;;0.63;0.63;;;;;;;5.22;100.00;98631.31;6181554;23;20017;-93
2023/04/15 02:11:15;;;;;;;0.35;0.35;;;;;;;5.38;100.00;98656.00;6132209;23;20486;-92
2023/04/15 02:13:41;;;;;;;0.05;0.05;;;;;;;5.48;100.00;98657.72;6156373;23;20009;-92
2023/04/15 02:16:16;;;;;;;0.10;0.10;;;;;;;5.39;100.00;98651.28;6155961;23;20343;-92
2023/04/15 02:18:44;;;;;;;0.45;0.30;;;;;;;5.46;100.00;98662.84;6131232;23;20017;-93
2023/04/15 02:21:10;;;;;;;0.70;0.70;;;;;;;5.40;100.00;98648.13;6131661;23;20025;-92
2023/04/15 02:23:37;;;;;;;0.32;0.32;;;;;;;5.37;100.00;98651.75;6156179;23;20052;-92
2023/04/15 02:26:03;;;;;;;0.82;0.82;;;;;;;5.38;100.00;98650.50;6156144;23;20080;-91
2023/04/15 02:28:30;;;;;;;0.20;0.20;;;;;;;5.45;100.00;98666.84;6132039;23;20122;-92
2023/04/15 02:30:58;;;;;;;0.93;0.93;;;;;;;5.32;100.00;98638.53;6156017;23;20439;-91
2023/04/15 02:33:24;;;;;;;0.57;0.57;;;;;;;5.54;100.00;98677.94;6133468;23;20087;-91
2023/04/15 02:35:49;;;;;;;1.45;0.85;;;;;;;5.53;100.00;98661.91;6131688;23;20029;-91
2023/04/15 02:38:16;;;;;;;0.17;0.17;;;;;;;5.33;100.00;98631.03;6156699;23;20044;-92
2023/04/15 02:40:42;;;;;;;0.57;0.45;;;;;;;5.50;100.00;98652.53;6132162;23;20021;-91
2023/04/15 02:43:08;;;;;;;0.60;0.60;;;;;;;5.50;100.00;98658.03;6155674;23;20017;-92
2023/04/15 02:45:34;;;;;;;1.17;1.10;;;;;;;5.35;100.00;98626.66;6131163;23;20510;-92
2023/04/15 02:48:05;;;;;;;0.17;0.17;;;;;;;5.72;100.00;98668.44;6107681;23;20009;-93
2023/04/15 02:50:30;;;;;;;0.40;0.40;;;;;;;5.39;100.00;98627.31;6182076;23;20009;-91
2023/04/15 02:52:56;;;;;;;2.20;2.00;;;;;;;5.73;100.00;98680.97;6155496;23;20187;-93
2023/04/15 02:55:22;;;;;;;0.00;0.00;;;;;;;5.71;100.00;98664.13;6131603;23;20027;-92
2023/04/15 02:57:47;;;;;;;2.42;0.88;;;;;;;5.61;100.00;98653.03;6131023;23;20083;-92
2023/04/15 03:00:13;;;;;;;0.90;0.90;;;;;;;5.54;100.00;98642.19;6130820;23;20494;-91
2023/04/15 03:02:41;;;;;;;1.45;0.52;;;;;;;5.40;100.00;98604.13;6133423;23;20013;-94
2023/04/15 03:05:11;;;;;;;0.88;0.88;;;;;;;5.39;100.00;98615.53;6156477;23;20021;-94
2023/04/15 03:07:39;;;;;;;0.20;0.20;;;;;;;5.66;100.00;98664.69;6109368;23;20017;-94
2023/04/15 03:10:06;;;;;;;0.20;0.20;;;;;;;5.43;100.00;98624.47;6109158;23;20016;-95
2023/04/15 03:12:31;;;;;;;0.93;0.80;;;;;;;5.43;100.00;98611.47;6132840;23;20013;-94
2023/04/15 03:14:57;;;;;;;0.40;0.40;;;;;;;5.57;100.00;98622.09;6108573;23;20019;-94
2023/04/15 03:17:31;;;;;;;0.60;0.57;;;;;;;5.55;100.00;98632.75;6111631;23;20040;-94
2023/04/15 03:19:57;;;;;;;0.57;0.55;;;;;;;5.82;100.00;98675.63;6131277;23;20008;-94
2023/04/15 03:22:24;;;;;;;0.52;0.43;;;;;;;5.73;100.00;98653.47;6130915;23;20005;-94
2023/04/15 03:24:50;;;;;;;0.35;0.30;;;;;;;5.70;100.00;98646.09;6106608;23;20020;-94
2023/04/15 03:27:16;;;;;;;0.98;0.55;;;;;;;5.79;100.00;98646.19;6155099;23;20001;-93
2023/04/15 03:29:41;;;;;;;0.20;0.20;;;;;;;5.83;100.00;98663.38;6154837;23;20013;-94
2023/04/15 03:32:07;;;;;;;0.63;0.63;;;;;;;5.54;100.00;98625.69;6106682;23;20013;-93
2023/04/15 03:34:33;;;;;;;0.22;0.22;;;;;;;5.67;100.00;98638.69;6155118;23;20028;-94
2023/04/15 03:36:59;;;;;;;1.15;0.63;;;;;;;5.83;100.00;98652.38;6105942;23;20009;-95
2023/04/15 03:39:24;;;;;;;0.70;0.70;;;;;;;5.76;100.00;98652.59;6106214;23;20031;-94
2023/04/15 03:41:50;;;;;;;0.45;0.45;;;;;;;5.66;100.00;98637.97;6130950;23;20393;-93
2023/04/15 03:44:16;;;;;;;0.65;0.65;;;;;;;5.84;100.00;98662.19;6130721;23;20088;-93
2023/04/15 03:46:41;;;;;;;0.32;0.32;;;;;;;5.86;100.00;98662.53;6130435;23;20506;-92
2023/04/15 03:49:07;;;;;;;0.73;0.65;;;;;;;5.77;100.00;98657.66;6129976;23;20024;-94
2023/04/15 03:51:33;;;;;;;0.10;0.10;;;;;;;5.85;100.00;98671.97;6131591;23;20017;-93
2023/04/15 03:53:59;;;;;;;0.10;0.10;;;;;;;5.66;100.00;98643.47;6106392;23;20017;-94
2023/04/15 03:56:25;;;;;;;0.10;0.10;;;;;;;5.71;100.00;98659.41;6106935;23;20017;-94
2023/04/15 03:58:50;;;;;;;0.20;0.20;;;;;;;5.76;100.00;98655.34;6131113;23;20009;-95
2023/04/15 04:01:16;;;;;;;0.55;0.55;;;;;;;5.91;100.00;98682.03;6105696;23;20382;-93
2023/04/15 04:03:42;;;;;;;0.75;0.75;;;;;;;5.63;100.00;98639.59;6106576;23;20023;-92
2023/04/15 04:06:07;;;;;;;0.17;0.17;;;;;;;5.97;100.00;98690.53;6105280;23;20470;-93
2023/04/15 04:08:33;;;;;;;1.85;0.88;;;;;;;5.76;100.00;98649.84;6130871;23;20151;-93
2023/04/15 04:10:59;;;;;;;0.05;0.05;;;;;;;5.87;100.00;98675.09;6130697;23;20403;-94
2023/04/15 04:13:24;;;;;;;0.20;0.20;;;;;;;5.94;100.00;98691.41;6155497;23;20083;-92
2023/04/15 04:15:50;;;;;;;0.10;0.10;;;;;;;5.84;100.00;98681.44;6106182;23;20017;-93
2023/04/15 04:18:15;;;;;;;0.80;0.80;;;;;;;5.92;100.00;98694.59;6155257;23;20351;-92
2023/04/15 04:20:41;;;;;;;0.00;0.00;;;;;;;5.66;100.00;98653.69;6130374;23;20083;-94
2023/04/15 04:23:07;;;;;;;0.10;0.10;;;;;;;5.75;100.00;98662.81;6130779;23;20479;-93
2023/04/15 04:25:32;;;;;;;0.55;0.55;;;;;;;5.84;100.00;98678.69;6106318;23;20112;-94
2023/04/15 04:27:58;;;;;;;0.63;0.63;;;;;;;5.65;100.00;98661.16;6155635;23;20443;-95
2023/04/15 04:30:23;;;;;;;0.10;0.10;;;;;;;5.63;100.00;98650.59;6100953;23;20167;-95
2023/04/15 04:32:50;;;;;;;0.30;0.30;;;;;;;5.81;100.00;98679.56;6129198;23;20025;-94
2023/04/15 04:35:16;;;;;;;0.20;0.20;;;;;;;5.69;100.00;98666.56;6106398;23;20032;-94
2023/04/15 04:37:41;;;;;;;1.23;1.13;;;;;;;5.70;100.00;98670.88;6107363;23;20009;-93
2023/04/15 04:40:08;;;;;;;0.20;0.20;;;;;;;5.94;100.00;98708.69;6105312;23;20024;-91
2023/04/15 04:42:34;;;;;;;0.47;0.47;;;;;;;5.92;100.00;98688.31;6129937;23;20017;-90
2023/04/15 04:44:59;;;;;;;0.00;0.00;;;;;;;5.81;100.00;98682.31;6180439;23;20084;-90
2023/04/15 04:47:25;;;;;;;0.55;0.30;;;;;;;5.72;100.00;98671.19;6153786;23;20021;-91
2023/04/15 04:49:50;;;;;;;0.10;0.10;;;;;;;5.62;100.00;98660.03;6153630;23;20009;-90
2023/04/15 04:52:16;;;;;;;0.20;0.20;;;;;;;5.84;100.00;98686.94;6154494;23;20128;-90
2023/04/15 04:54:41;;;;;;;1.67;1.20;;;;;;;5.72;100.00;98669.19;6154417;23;20164;-90
2023/04/15 04:57:07;;;;;;;0.00;0.00;;;;;;;5.81;100.00;98676.81;6129476;23;20136;-90
2023/04/15 04:59:32;;;;;;;0.25;0.25;;;;;;;5.72;100.00;98668.44;6153908;23;20022;-90
2023/04/15 05:01:58;;;;;;;0.63;0.63;;;;;;;5.81;100.00;98680.34;6152472;23;20489;-90
2023/04/15 05:04:24;;;;;;;0.35;0.35;;;;;;;5.70;100.00;98671.63;6124462;23;20025;-91
2023/04/15 05:06:49;;;;;;;0.20;0.20;;;;;;;5.69;100.00;98669.31;6151723;23;20021;-92
2023/04/15 05:09:15;;;;;;;0.22;0.22;;;;;;;5.77;100.00;98676.16;6153692;23;20044;-91
2023/04/15 05:11:41;;;;;;;0.32;0.32;;;;;;;5.76;100.00;98680.09;6154172;23;20391;-90
2023/04/15 05:14:06;;;;;;;0.38;0.38;;;;;;;5.81;100.00;98688.59;6128934;23;20347;-90
2023/04/15 05:16:32;;;;;;;0.10;0.10;;;;;;;5.86;100.00;98693.59;6153729;23;20439;-91
2023/04/15 05:18:57;;;;;;;0.30;0.30;;;;;;;5.90;100.00;98688.00;6128871;23;20043;-90
2023/04/15 05:21:24;;;;;;;0.20;0.20;;;;;;;6.08;100.00;98719.28;6128347;23;20033;-90
2023/04/15 05:23:52;;;;;;;0.15;0.15;;;;;;;5.97;100.00;98687.78;6153613;23;20019;-89
2023/04/15 05:26:18;;;;;;;0.15;0.15;;;;;;;5.93;100.00;98696.13;6154675;23;20004;-90
2023/04/15 05:28:43;;;;;;;0.90;0.73;;;;;;;5.91;100.00;98686.75;6182366;23;20019;-90
2023/04/15 05:31:09;;;;;;;0.20;0.20;;;;;;;5.88;100.00;98682.13;6181209;23;20411;-89
2023/04/15 05:33:35;;;;;;;0.80;0.77;;;;;;;6.18;100.00;98733.16;6156095;23;20012;-91
2023/04/15 05:36:01;;;;;;;0.43;0.30;;;;;;;5.87;100.00;98675.09;6130857;23;20017;-91
2023/04/15 05:38:28;;;;;;;0.10;0.10;;;;;;;5.83;100.00;98679.88;6131591;23;20021;-91
2023/04/15 05:40:54;;;;;;;0.98;0.98;;;;;;;5.97;100.00;98698.78;6155283;23;20741;-92
2023/04/15 05:43:20;;;;;;;0.10;0.10;;;;;;;6.03;100.00;98694.25;6183442;23;20013;-91
2023/04/15 05:45:46;;;;;;;1.25;1.15;;;;;;;6.07;100.00;98695.69;6183652;23;20005;-90
2023/04/15 05:48:11;;;;;;;0.10;0.10;;;;;;;6.20;100.00;98715.00;6158088;23;20016;-91
2023/04/15 05:50:40;;;;;;;0.08;0.08;;;;;;;6.06;100.00;98691.44;6160205;23;20005;-91
2023/04/15 05:53:07;;;;;;;0.20;0.20;;;;;;;6.39;100.00;98733.28;6160308;23;20388;-93
2023/04/15 05:55:35;;;;;;;0.68;0.68;;;;;;;6.46;100.00;98738.59;6113444;23;20005;-92
2023/04/15 05:58:01;;;;;;;0.40;0.40;;;;;;;6.49;100.00;98748.72;6162431;23;20017;-93
2023/04/15 06:00:26;;;;;;;0.08;0.08;;;;;;;6.14;100.00;98691.97;6113763;23;20026;-92
2023/04/15 06:02:52;;;;;;;0.10;0.10;;;;;;;6.18;100.00;98689.13;6164501;23;20103;-91
2023/04/15 06:05:17;;;;;;;0.45;0.45;;;;;;;6.32;100.00;98719.72;6189334;23;20577;-94
2023/04/15 06:07:43;;;;;;;0.40;0.40;;;;;;;6.54;100.00;98723.38;6112336;23;20087;-91
2023/04/15 06:10:09;;;;;;;0.55;0.35;;;;;;;6.44;100.00;98726.44;6163284;23;20009;-91
2023/04/15 06:12:35;;;;;;;0.00;0.00;;;;;;;6.56;100.00;98743.00;6110529;23;20052;-91
2023/04/15 06:15:01;;;;;;;0.55;0.55;;;;;;;6.33;100.00;98707.50;6155720;23;20025;-92
2023/04/15 06:17:27;;;;;;;0.30;0.30;;;;;;;6.53;100.00;98741.13;6135093;23;20017;-91
2023/04/15 06:19:55;;;;;;;0.95;0.95;;;;;;;6.69;100.00;98759.53;6163419;23;20016;-92
2023/04/15 06:22:24;;;;;;;0.65;0.65;;;;;;;6.37;100.00;98702.66;6158592;23;20028;-92
2023/04/15 06:24:50;;;;;;;0.38;0.38;;;;;;;6.47;100.00;98729.09;6131984;23;20005;-90
2023/04/15 06:27:16;;;;;;;0.75;0.75;;;;;;;6.38;100.00;98720.75;6158047;23;20096;-91
2023/04/15 06:29:42;;;;;;;0.00;0.00;;;;;;;6.66;100.00;98756.88;6158761;23;20169;-91
2023/04/15 06:32:08;;;;;;;0.10;0.10;;;;;;;6.55;100.00;98741.44;6156301;23;20020;-91
2023/04/15 06:34:33;;;;;;;0.28;0.28;;;;;;;6.73;100.00;98759.41;6131823;23;19997;-91
2023/04/15 06:37:00;;;;;;;0.65;0.65;;;;;;;6.74;100.00;98758.19;6131088;23;20092;-92
2023/04/15 06:39:26;;;;;;;0.73;0.73;;;;;;;6.72;100.00;98755.88;6181083;23;20040;-92
2023/04/15 06:41:52;;;;;;;0.22;0.22;;;;;;;6.56;100.00;98726.47;6154399;23;20407;-91
2023/04/15 06:44:20;;;;;;;0.17;0.17;;;;;;;6.48;100.00;98725.13;6155224;23;20064;-91
2023/04/15 06:46:45;;;;;;;0.43;0.43;;;;;;;6.77;100.00;98769.09;6181740;23;20017;-91
2023/04/15 06:49:11;;;;;;;0.25;0.25;;;;;;;6.78;100.00;98758.84;6130069;23;20009;-89
2023/04/15 06:51:36;;;;;;;0.52;0.52;;;;;;;6.86;100.00;98766.47;6181178;23;20001;-91
2023/04/15 06:54:04;;;;;;;0.65;0.52;;;;;;;7.08;100.00;98791.34;6155479;23;20071;-91
2023/04/15 06:56:32;;;;;;;0.45;0.45;;;;;;;7.07;100.00;98781.53;6155140;23;20088;-91
2023/04/15 06:58:58;;;;;;;0.52;0.52;;;;;;;6.79;100.00;98741.88;6124911;23;20435;-91
2023/04/15 07:01:27;;;;;;;0.32;0.30;;;;;;;6.85;100.00;98748.38;6142305;23;20029;-91
2023/04/15 07:03:53;;;;;;;1.23;1.08;;;;;;;7.12;100.00;98780.97;6154005;23;20087;-90
2023/04/15 07:06:18;;;;;;;0.00;0.00;;;;;;;7.01;100.00;98766.75;6156037;23;20013;-91
2023/04/15 07:08:44;;;;;;;0.28;0.28;;;;;;;7.02;100.00;98773.81;6130524;23;20023;-92
2023/04/15 07:11:10;;;;;;;1.02;1.02;;;;;;;7.07;100.00;98773.28;6154602;23;20439;-92
2023/04/15 07:13:36;;;;;;;0.08;0.08;;;;;;;6.96;100.00;98748.00;6130011;23;20334;-90
2023/04/15 07:16:02;;;;;;;0.35;0.35;;;;;;;6.97;100.00;98761.38;6154095;23;20080;-92
2023/04/15 07:18:27;;;;;;;0.20;0.20;;;;;;;6.96;100.00;98756.28;6154740;23;20013;-91
2023/04/15 07:20:53;;;;;;;1.33;1.23;;;;;;;6.93;100.00;98751.66;6154215;23;20029;-91
2023/04/15 07:23:18;;;;;;;0.63;0.63;;;;;;;7.15;100.00;98766.31;6154445;23;20017;-92
2023/04/15 07:25:44;;;;;;;0.03;0.03;;;;;;;7.12;100.00;98756.16;6180086;23;20013;-90
2023/04/15 07:28:10;;;;;;;0.35;0.35;;;;;;;7.26;100.00;98788.78;6154469;23;20486;-92
2023/04/15 07:30:36;;;;;;;3.40;2.17;;;;;;;7.11;100.00;98773.94;6153626;23;20056;-91
2023/04/15 07:33:07;;;;;;;0.22;0.22;;;;;;;7.29;100.00;98792.63;6154554;23;20025;-92
2023/04/15 07:35:32;;;;;;;0.45;0.45;;;;;;;7.50;100.00;98830.56;6155076;23;20016;-94
2023/04/15 07:37:58;;;;;;;1.08;0.88;;;;;;;7.40;100.00;98818.63;6155113;23;20313;-91
2023/04/15 07:40:24;;;;;;;0.10;0.10;;;;;;;7.18;100.00;98770.16;6154033;23;20021;-91
2023/04/15 07:42:50;;;;;;;0.20;0.20;;;;;;;7.30;100.00;98802.44;6104274;23;20055;-92
2023/04/15 07:45:16;;;;;;;0.35;0.30;;;;;;;7.56;100.00;98825.25;6154610;23;20383;-92
2023/04/15 07:47:41;;;;;;;0.22;0.22;;;;;;;7.36;100.00;98790.41;6154840;23;20028;-93
2023/04/15 07:50:09;;;;;;;0.32;0.32;;;;;;;7.39;100.00;98781.25;6153930;23;20283;-92
2023/04/15 07:52:38;;;;;;;0.10;0.10;;;;;;;7.55;100.00;98796.09;6130357;23;20017;-92
2023/04/15 07:55:07;;;;;;;0.30;0.30;;;;;;;7.64;100.00;98799.72;6155027;23;20028;-92
2023/04/15 07:57:34;;;;;;;0.85;0.50;;;;;;;7.85;100.00;98828.56;6129670;23;20009;-93
2023/04/15 08:00:00;;;;;;;1.23;1.17;;;;;;;7.89;100.00;98823.69;6154054;23;20009;-92
2023/04/15 08:02:25;;;;;;;0.35;0.30;;;;;;;7.94;100.00;98826.66;6129431;23;20683;-92
2023/04/15 08:04:52;;;;;;;0.32;0.32;;;;;;;7.93;100.00;98836.13;6154646;23;20029;-92
2023/04/15 08:07:18;;;;;;;0.13;0.13;;;;;;;7.96;100.00;98840.00;6153873;23;20027;-92
2023/04/15 08:09:45;;;;;;;0.20;0.20;;;;;;;7.95;100.00;98855.03;6155733;23;20506;-93
2023/04/15 08:12:12;;;;;;;1.02;0.98;;;;;;;7.89;100.00;98832.72;6131593;23;20009;-92
2023/04/15 08:14:38;;;;;;;0.00;0.00;;;;;;;7.76;100.00;98809.19;6170271;23;20009;-91
2023/04/15 08:17:04;;;;;;;0.55;0.55;;;;;;;7.94;100.00;98834.94;6187898;23;20019;-93
2023/04/15 08:19:30;;;;;;;0.13;0.13;;;;;;;8.05;100.00;98848.34;6181285;23;20084;-92
2023/04/15 08:21:56;;;;;;;0.88;0.25;;;;;;;7.91;100.00;98807.44;6182591;23;20450;-92
2023/04/15 08:24:23;;;;;;;0.17;0.17;;;;;;;8.02;100.00;98807.84;6132685;23;20040;-92
2023/04/15 08:26:48;;;;;;;1.10;1.00;;;;;;;7.97;100.00;98816.69;6155272;23;20008;-93
2023/04/15 08:29:14;;;;;;;0.38;0.38;;;;;;;8.13;100.00;98843.38;6155439;23;20021;-92
2023/04/15 08:31:39;;;;;;;0.03;0.03;;;;;;;8.10;100.00;98839.50;6188820;23;20005;-91
2023/04/15 08:34:05;;;;;;;0.20;0.20;;;;;;;7.96;100.00;98851.06;6166281;23;20076;-91
2023/04/15 08:36:31;;;;;;;0.68;0.68;;;;;;;8.01;100.00;98861.50;6185546;23;20020;-92
2023/04/15 08:38:57;;;;;;;2.00;1.13;;;;;;;7.98;100.00;98859.66;6180900;23;20005;-92
2023/04/15 08:41:24;;;;;;;0.10;0.10;;;;;;;7.95;100.00;98844.00;6130457;23;20017;-92
2023/04/15 08:43:58;;;;;;;0.25;0.25;;;;;;;8.05;100.00;98862.16;6154848;23;20001;-92
2023/04/15 08:46:23;;;;;;;0.50;0.40;;;;;;;8.00;100.00;98834.38;6154363;23;20088;-93
2023/04/15 08:48:49;;;;;;;0.10;0.10;;;;;;;8.12;100.00;98856.41;6180489;23;20364;-92
2023/04/15 08:51:18;;;;;;;0.05;0.05;;;;;;;8.03;100.00;98853.56;6130229;23;20013;-92
2023/04/15 08:53:46;;;;;;;0.35;0.35;;;;;;;8.06;100.00;98855.44;6154741;23;20005;-93
2023/04/15 08:56:13;;;;;;;0.20;0.20;;;;;;;8.37;100.00;98892.22;6154359;23;20059;-91
2023/04/15 08:58:39;;;;;;;0.00;0.00;;;;;;;8.27;100.00;98871.25;6153672;23;20017;-92
2023/04/15 09:01:05;;;;;;;0.08;0.08;;;;;;;8.34;100.00;98865.47;6154775;23;20075;-93
2023/04/15 09:03:31;;;;;;;0.00;0.00;;;;;;;8.49;100.00;98901.69;6182893;23;20440;-92
2023/04/15 09:05:57;;;;;;;0.17;0.17;;;;;;;8.45;100.00;98892.75;6131045;23;20021;-91
2023/04/15 09:08:23;;;;;;;0.52;0.52;;;;;;;8.24;100.00;98866.63;6131983;23;20013;-92
2023/04/15 09:10:49;;;;;;;0.65;0.65;;;;;;;8.23;100.00;98876.13;6131466;23;20329;-91
2023/04/15 09:13:14;;;;;;;1.17;1.08;;;;;;;8.15;100.00;98865.78;6154975;23;20017;-92
2023/04/15 09:15:40;;;;;;;0.32;0.32;;;;;;;8.46;100.00;98910.06;6155507;23;20039;-91
2023/04/15 09:18:06;;;;;;;0.90;0.40;;;;;;;8.27;100.00;98885.06;6156053;23;20047;-90
2023/04/15 09:20:39;;;;;;;0.70;0.65;;;;;;;8.40;100.00;98910.66;6131263;23;20447;-92
2023/04/15 09:23:12;;;;;;;0.43;0.32;;;;;;;8.25;100.00;98884.72;6157253;23;20021;-93
2023/04/15 09:25:39;;;;;;;0.38;0.38;;;;;;;8.61;100.00;98924.94;6132526;23;20020;-92
2023/04/15 09:28:05;;;;;;;0.50;0.50;;;;;;;8.43;100.00;98889.66;6131607;23;20012;-91
2023/04/15 09:30:30;;;;;;;0.15;0.15;;;;;;;8.50;100.00;98908.72;6156470;23;20345;-91
2023/04/15 09:32:58;;;;;;;0.32;0.32;;;;;;;8.64;100.00;98921.28;6155622;23;20348;-91
2023/04/15 09:35:24;;;;;;;0.15;0.05;;;;;;;8.72;100.00;98922.56;6156505;23;20299;-91
2023/04/15 09:37:51;;;;;;;1.00;0.95;;;;;;;8.69;100.00;98898.59;6131356;23;20900;-92
2023/04/15 09:40:36;;;;;;;0.50;0.50;;;;;;;8.80;100.00;98896.19;6156325;23;20427;-92
2023/04/15 09:43:04;;;;;;;0.10;0.10;;;;;;;8.83;100.00;98917.38;6155223;23;20016;-92
2023/04/15 09:45:30;;;;;;;0.32;0.32;;;;;;;8.79;100.00;98905.69;6156350;23;20007;-91
2023/04/15 09:47:57;;;;;;;0.52;0.43;;;;;;;8.60;100.00;98890.22;6158046;23;20020;-91
2023/04/15 09:50:26;;;;;;;1.05;0.38;;;;;;;8.80;100.00;98910.00;6155814;23;20016;-92
2023/04/15 09:52:52;;;;;;;0.10;0.10;;;;;;;8.94;100.00;98923.28;6156098;23;20021;-91
2023/04/15 09:55:17;;;;;;;0.38;0.38;;;;;;;8.61;100.00;98878.72;6182986;23;20044;-91
2023/04/15 09:57:45;;;;;;;1.23;1.02;;;;;;;8.80;100.00;98885.13;6108119;23;20336;-91
2023/04/15 10:00:11;;;;;;;1.27;1.00;;;;;;;9.01;100.00;98900.91;6156047;23;20047;-92
2023/04/15 10:02:39;;;;;;;0.40;0.40;;;;;;;9.09;100.00;98896.66;6156467;23;20080;-92
2023/04/15 10:05:06;;;;;;;0.32;0.32;;;;;;;9.06;100.00;98889.22;6155721;23;20024;-92
2023/04/15 10:07:31;;;;;;;0.68;0.68;;;;;;;8.84;100.00;98880.22;6182362;23;20027;-92
2023/04/15 10:09:59;;;;;;;0.03;0.03;;;;;;;8.79;100.00;98895.41;6156363;23;20005;-92
2023/04/15 10:12:25;;;;;;;0.28;0.28;;;;;;;8.57;100.00;98888.38;6180995;23;20013;-92
2023/04/15 10:14:55;;;;;;;0.13;0.13;;;;;;;8.57;100.00;98911.25;6105825;23;20037;-91
2023/04/15 10:17:21;;;;;;;0.10;0.10;;;;;;;8.41;100.00;98895.63;6157778;23;20008;-92
2023/04/15 10:19:47;;;;;;;1.45;0.80;;;;;;;8.47;100.00;98917.16;6156430;23;20036;-91
2023/04/15 10:22:13;;;;;;;0.00;0.00;;;;;;;8.40;100.00;98913.44;6155844;23;20040;-90
2023/04/15 10:24:39;;;;;;;0.10;0.10;;;;;;;8.56;100.00;98917.22;6155645;23;20334;-90
2023/04/15 10:27:05;;;;;;;0.70;0.70;;;;;;;8.39;100.00;98895.31;6155704;23;20052;-90
2023/04/15 10:29:30;;;;;;;0.88;0.80;;;;;;;8.59;100.00;98897.75;6130666;23;20012;-91
2023/04/15 10:31:58;;;;;;;0.15;0.15;;;;;;;8.92;100.00;98920.22;6154889;23;20490;-91
2023/04/15 10:34:24;;;;;;;1.15;0.77;;;;;;;9.12;100.00;98925.38;6181268;23;20339;-92
2023/04/15 10:36:50;;;;;;;0.43;0.43;;;;;;;9.11;100.00;98890.63;6130524;23;20012;-92
2023/04/15 10:39:35;;;;;;;0.70;0.70;;;;;;;9.53;100.00;98919.41;6130409;23;20399;-92
2023/04/15 10:42:12;;;;;;;0.68;0.65;;;;;;;9.52;100.00;98861.72;6155154;23;20067;-92
2023/04/15 10:44:39;;;;;;;0.30;0.30;;;;;;;9.62;100.00;98858.53;6155702;23;20013;-92
2023/04/15 10:47:17;;;;;;;1.10;0.22;;;;;;;9.83;100.00;98884.53;6154694;23;20031;-91
2023/04/15 10:49:46;;;;;;;0.55;0.55;;;;;;;9.75;100.00;98867.44;6181492;23;20017;-91
2023/04/15 10:52:11;;;;;;;0.28;0.28;;;;;;;9.93;100.00;98915.78;6154999;23;20071;-91
2023/04/15 10:54:38;;;;;;;0.43;0.43;;;;;;;9.86;100.00;98918.88;6155423;23;20104;-90
2023/04/15 10:57:04;;;;;;;0.20;0.20;;;;;;;9.73;100.00;98913.47;6180861;23;20445;-89
2023/04/15 10:59:30;;;;;;;0.28;0.28;;;;;;;9.24;100.00;98892.09;6154009;23;20047;-91
2023/04/15 11:01:59;;;;;;;0.55;0.55;;;;;;;9.15;100.00;98889.28;6180630;23;20017;-91
2023/04/15 11:04:53;;;;;;;0.15;0.15;;;;;;;9.08;100.00;98925.53;6180746;23;20425;-91
2023/04/15 11:07:47;;;;;;;0.45;0.45;;;;;;;8.92;100.00;98941.56;6181554;23;20084;-91
2023/04/15 11:10:12;;;;;;;0.65;0.65;;;;;;;8.71;100.00;98943.13;6154739;23;20451;-90
2023/04/15 11:12:39;;;;;;;0.60;0.57;;;;;;;8.28;100.00;98910.69;6180863;23;20004;-91
2023/04/15 11:15:33;;;;;;;0.20;0.20;;;;;;;8.35;100.00;98943.63;6130176;23;20041;-91
2023/04/15 11:18:17;;;;;;;0.13;0.13;;;;;;;7.92;100.00;98891.81;6181277;23;20024;-91
2023/04/15 11:20:44;;;;;;;;;;;;;;;8.12;100.00;98935.72;6105965;23;20021;-92
2023/04/15 11:23:09;;;;;;;0.20;0.20;;;;;;;7.82;100.00;98913.03;6131273;23;19915;-92
2023/04/15 11:25:38;;;;;;;0.45;0.45;;;;;;;7.98;100.00;98942.50;6128997;23;20012;-91
2023/04/15 11:28:05;;;;;;;0.50;0.47;;;;;;;7.76;100.00;98897.50;6155056;23;20009;-92
2023/04/15 11:30:35;;;;;;;0.35;0.30;;;;;;;8.02;100.00;98926.56;6128604;23;20466;-91
2023/04/15 11:33:05;;;;;;;0.20;0.20;;;;;;;8.10;100.00;98927.09;6180771;23;20012;-91
2023/04/15 11:35:31;;;;;;;0.47;0.35;;;;;;;7.99;100.00;98891.56;6128933;23;20100;-92